CheckWX is a tool to help pilots better visualize weather data.  It is not intended as a substitute for an official pre-flight weather briefing.

19:02:30 UTC

ETNW TAF
Wunstorf Airport
Germany
TAF ETNW 171712Z 1718/1818 04008KT 5000 -RA SCT007 BKN015 TEMPO 1718/1809 02010G20KT 2000 DZ BR BKN003 OVC006 PROB30 1801/1808 VRB03KT 0500 FG BKN001 BECMG 1809/1811 18005KT 6000 NSW BKN006 BKN012 BECMG 1813/1815 18012KT 8000 NSW SCT010 BKN020 BY ETGL

Nov-17@
18:00 UTC

Nov-17 @ 18:00 UTC

Nov-18@
09:00 UTC

Nov-18 @ 09:00 UTC

TAF ETNW 171712Z 1718/1818 04008KT 5000 -RA SCT007 BKN015
Wind
  • 040° at 8 KTS
Conditions
Light Rain
Cloud Levels
  • Scattered at 700' AGL
  • Broken at 1,500' AGL

Nov-17@
18:00 UTC

Nov-17 @ 18:00 UTC

Nov-18@
09:00 UTC

Nov-18 @ 09:00 UTC

TEMPO 1718/1809 02010G20KT 2000 DZ BR BKN003 OVC006

Temporary

Temporary Changes expected for less than half the time period

Wind
  • 020° at 10 KTS
  • {Gusting to 20 KTS
Conditions
Drizzle, Mist
Cloud Levels
  • Broken at 300' AGL
  • Overcast at 600' AGL

Nov-18@
01:00 UTC

Nov-18 @ 01:00 UTC

Nov-18@
08:00 UTC

Nov-18 @ 08:00 UTC

PROB30 1801/1808 VRB03KT 0500 FG BKN001

Probable - 30% Likelihood

Probable - 30% Likelihood during this time.

Wind
  • Variable at 3 KTS
Conditions
Fog
Cloud Levels
  • Broken at 100' AGL

Nov-18@
09:00 UTC

Nov-18 @ 09:00 UTC

Nov-18@
13:00 UTC

Nov-18 @ 13:00 UTC

BECMG 1809/1811 18005KT 6000 NSW BKN006 BKN012

Becoming

Becoming Conditions expected by Mon, Nov 18, 2019 @ 11:00 UTC

Wind
  • 180° at 5 KTS
Conditions
No significant weather
Cloud Levels
  • Broken at 600' AGL
  • Broken at 1,200' AGL

Nov-18@
13:00 UTC

Nov-18 @ 13:00 UTC

Nov-18@
18:00 UTC

Nov-18 @ 18:00 UTC

BECMG 1813/1815 18012KT 8000 NSW SCT010 BKN020 BY ETGL

Becoming

Becoming Conditions expected by Mon, Nov 18, 2019 @ 15:00 UTC

Wind
  • 180° at 12 KTS
Conditions
No significant weather
Cloud Levels
  • Scattered at 1,000' AGL
  • Broken at 2,000' AGL